Laneport, Texas
Current Conditions -  °F | °C
As of 12:58 AM on Saturday 20 Dec 2014 (Local Time) from KGRK Reporting Station
Overcast Overcast  
Wind Chill: 42°   Ceiling: 1300
Heat Index: 46°   Visibility: 10mi
Dew Point: 45°   Wind: 7mph
Humidity: 98%   Direction: 350°N
Pressure: 30.19"   Gusts: NA
Location:  30.5793°N, 97.5096°W
Report Text: KGRK 200658Z AUTO 35006KT 10SM FEW008 OVC013 08/07 A3019 RMK AO2 SLP225 T00760073
Loading
Personal Weather Stations






























Interactive Weather Map New forecast layout! Learn more

10-Day Weather Forecast

Advertisements
Track Severe Weather on mobile